sensor_id;sensor_type;location;lat;lon;timestamp;temperature;humidity
59975;DHT22;62136;-35.664;-63.766;2023-04-30T00:01:29;26.00;55.00
59975;DHT22;62136;-35.664;-63.766;2023-04-30T00:04:00;25.90;55.00
59975;DHT22;62136;-35.664;-63.766;2023-04-30T00:06:47;26.00;55.10
59975;DHT22;62136;-35.664;-63.766;2023-04-30T00:09:14;25.90;55.10
59975;DHT22;62136;-35.664;-63.766;2023-04-30T00:11:41;25.90;55.10
59975;DHT22;62136;-35.664;-63.766;2023-04-30T00:14:09;25.90;55.20
59975;DHT22;62136;-35.664;-63.766;2023-04-30T00:16:36;25.90;55.10
59975;DHT22;62136;-35.664;-63.766;2023-04-30T00:19:03;25.90;55.20
59975;DHT22;62136;-35.664;-63.766;2023-04-30T00:21:30;25.90;55.20
59975;DHT22;62136;-35.664;-63.766;2023-04-30T00:23:57;25.90;55.20
59975;DHT22;62136;-35.664;-63.766;2023-04-30T00:26:26;25.80;55.20
59975;DHT22;62136;-35.664;-63.766;2023-04-30T00:28:53;25.80;55.30
59975;DHT22;62136;-35.664;-63.766;2023-04-30T00:31:20;25.80;55.30
59975;DHT22;62136;-35.664;-63.766;2023-04-30T00:33:47;25.80;55.30
59975;DHT22;62136;-35.664;-63.766;2023-04-30T00:36:14;25.70;55.30
59975;DHT22;62136;-35.664;-63.766;2023-04-30T00:38:41;25.70;55.40
59975;DHT22;62136;-35.664;-63.766;2023-04-30T00:41:09;25.70;55.40
59975;DHT22;62136;-35.664;-63.766;2023-04-30T00:43:36;25.70;55.50
59975;DHT22;62136;-35.664;-63.766;2023-04-30T00:46:03;25.70;55.50
59975;DHT22;62136;-35.664;-63.766;2023-04-30T00:48:31;25.70;55.50
59975;DHT22;62136;-35.664;-63.766;2023-04-30T00:51:00;25.70;55.50
59975;DHT22;62136;-35.664;-63.766;2023-04-30T00:53:28;25.70;55.50
59975;DHT22;62136;-35.664;-63.766;2023-04-30T00:55:55;25.60;55.50
59975;DHT22;62136;-35.664;-63.766;2023-04-30T00:58:22;25.60;55.50
59975;DHT22;62136;-35.664;-63.766;2023-04-30T01:00:50;25.70;55.60
59975;DHT22;62136;-35.664;-63.766;2023-04-30T01:03:17;25.60;55.60
59975;DHT22;62136;-35.664;-63.766;2023-04-30T01:05:44;25.60;55.60
59975;DHT22;62136;-35.664;-63.766;2023-04-30T01:08:11;25.60;55.70
59975;DHT22;62136;-35.664;-63.766;2023-04-30T01:16:39;25.50;55.70
59975;DHT22;62136;-35.664;-63.766;2023-04-30T01:21:46;25.50;55.80
59975;DHT22;62136;-35.664;-63.766;2023-04-30T01:24:17;25.50;55.80
59975;DHT22;62136;-35.664;-63.766;2023-04-30T01:27:46;25.50;55.90
59975;DHT22;62136;-35.664;-63.766;2023-04-30T01:30:15;25.50;55.90
59975;DHT22;62136;-35.664;-63.766;2023-04-30T01:32:42;25.50;56.00
59975;DHT22;62136;-35.664;-63.766;2023-04-30T01:35:09;25.50;55.90
59975;DHT22;62136;-35.664;-63.766;2023-04-30T01:37:55;25.50;56.00
59975;DHT22;62136;-35.664;-63.766;2023-04-30T01:41:00;25.40;55.90
59975;DHT22;62136;-35.664;-63.766;2023-04-30T01:46:32;25.40;56.00
59975;DHT22;62136;-35.664;-63.766;2023-04-30T01:49:25;25.40;56.00
59975;DHT22;62136;-35.664;-63.766;2023-04-30T01:52:08;25.40;56.10
59975;DHT22;62136;-35.664;-63.766;2023-04-30T01:55:03;25.40;56.10
59975;DHT22;62136;-35.664;-63.766;2023-04-30T01:57:40;25.40;56.10
59975;DHT22;62136;-35.664;-63.766;2023-04-30T02:00:09;25.40;56.20
59975;DHT22;62136;-35.664;-63.766;2023-04-30T02:02:37;25.30;56.10
59975;DHT22;62136;-35.664;-63.766;2023-04-30T02:05:04;25.30;56.10
59975;DHT22;62136;-35.664;-63.766;2023-04-30T02:10:05;25.30;56.20
59975;DHT22;62136;-35.664;-63.766;2023-04-30T02:12:32;25.30;56.20
59975;DHT22;62136;-35.664;-63.766;2023-04-30T02:14:59;25.30;56.20
59975;DHT22;62136;-35.664;-63.766;2023-04-30T02:17:26;25.30;56.30
59975;DHT22;62136;-35.664;-63.766;2023-04-30T02:19:53;25.30;56.40
59975;DHT22;62136;-35.664;-63.766;2023-04-30T02:22:20;25.20;56.20
59975;DHT22;62136;-35.664;-63.766;2023-04-30T02:24:48;25.20;56.30
59975;DHT22;62136;-35.664;-63.766;2023-04-30T02:27:15;25.20;56.30
59975;DHT22;62136;-35.664;-63.766;2023-04-30T02:29:43;25.20;56.30
59975;DHT22;62136;-35.664;-63.766;2023-04-30T02:32:10;25.20;56.30
59975;DHT22;62136;-35.664;-63.766;2023-04-30T02:34:37;25.20;56.40
59975;DHT22;62136;-35.664;-63.766;2023-04-30T02:37:04;25.20;56.40
59975;DHT22;62136;-35.664;-63.766;2023-04-30T02:39:32;25.10;56.40
59975;DHT22;62136;-35.664;-63.766;2023-04-30T02:41:59;25.20;56.40
59975;DHT22;62136;-35.664;-63.766;2023-04-30T02:44:27;25.20;56.40
59975;DHT22;62136;-35.664;-63.766;2023-04-30T02:46:54;25.10;56.40
59975;DHT22;62136;-35.664;-63.766;2023-04-30T02:49:21;25.10;56.40
59975;DHT22;62136;-35.664;-63.766;2023-04-30T02:51:48;25.10;56.40
59975;DHT22;62136;-35.664;-63.766;2023-04-30T02:54:15;25.10;56.40
59975;DHT22;62136;-35.664;-63.766;2023-04-30T02:56:42;25.10;56.40
59975;DHT22;62136;-35.664;-63.766;2023-04-30T02:59:10;25.10;56.50
59975;DHT22;62136;-35.664;-63.766;2023-04-30T03:01:37;25.10;56.50
59975;DHT22;62136;-35.664;-63.766;2023-04-30T03:04:04;25.10;56.50
59975;DHT22;62136;-35.664;-63.766;2023-04-30T03:06:32;25.10;56.60
59975;DHT22;62136;-35.664;-63.766;2023-04-30T03:09:00;25.10;56.50
59975;DHT22;62136;-35.664;-63.766;2023-04-30T03:11:27;25.00;56.50
59975;DHT22;62136;-35.664;-63.766;2023-04-30T03:13:54;25.00;56.50
59975;DHT22;62136;-35.664;-63.766;2023-04-30T03:16:21;25.00;56.60
59975;DHT22;62136;-35.664;-63.766;2023-04-30T03:18:48;25.00;56.60
59975;DHT22;62136;-35.664;-63.766;2023-04-30T03:21:15;25.00;56.60
59975;DHT22;62136;-35.664;-63.766;2023-04-30T03:23:42;25.00;56.60
59975;DHT22;62136;-35.664;-63.766;2023-04-30T03:26:09;25.00;56.60
59975;DHT22;62136;-35.664;-63.766;2023-04-30T03:28:36;24.90;56.60
59975;DHT22;62136;-35.664;-63.766;2023-04-30T03:31:03;25.00;56.70
59975;DHT22;62136;-35.664;-63.766;2023-04-30T03:33:31;24.90;56.70
59975;DHT22;62136;-35.664;-63.766;2023-04-30T03:35:58;24.90;56.70
59975;DHT22;62136;-35.664;-63.766;2023-04-30T03:38:25;24.90;56.70
59975;DHT22;62136;-35.664;-63.766;2023-04-30T03:40:52;24.90;56.80
59975;DHT22;62136;-35.664;-63.766;2023-04-30T03:43:20;24.90;56.80
59975;DHT22;62136;-35.664;-63.766;2023-04-30T03:45:47;24.90;56.80
59975;DHT22;62136;-35.664;-63.766;2023-04-30T03:48:17;24.90;57.10
59975;DHT22;62136;-35.664;-63.766;2023-04-30T03:50:53;24.90;56.80
59975;DHT22;62136;-35.664;-63.766;2023-04-30T03:53:20;24.80;56.80
59975;DHT22;62136;-35.664;-63.766;2023-04-30T03:55:48;24.90;56.90
59975;DHT22;62136;-35.664;-63.766;2023-04-30T03:58:15;24.90;56.90
59975;DHT22;62136;-35.664;-63.766;2023-04-30T04:00:43;24.80;56.90
59975;DHT22;62136;-35.664;-63.766;2023-04-30T04:03:11;24.80;57.00
59975;DHT22;62136;-35.664;-63.766;2023-04-30T04:05:38;24.80;57.10
59975;DHT22;62136;-35.664;-63.766;2023-04-30T04:08:06;24.80;57.00
59975;DHT22;62136;-35.664;-63.766;2023-04-30T04:10:34;24.80;57.00
59975;DHT22;62136;-35.664;-63.766;2023-04-30T04:13:01;24.80;57.10
59975;DHT22;62136;-35.664;-63.766;2023-04-30T04:15:28;24.70;57.10
59975;DHT22;62136;-35.664;-63.766;2023-04-30T04:17:55;24.70;57.10
59975;DHT22;62136;-35.664;-63.766;2023-04-30T04:20:22;24.70;57.10
59975;DHT22;62136;-35.664;-63.766;2023-04-30T04:22:49;24.70;57.20
59975;DHT22;62136;-35.664;-63.766;2023-04-30T04:25:17;24.70;57.20
59975;DHT22;62136;-35.664;-63.766;2023-04-30T04:27:44;24.70;57.20
59975;DHT22;62136;-35.664;-63.766;2023-04-30T04:30:11;24.70;57.30
59975;DHT22;62136;-35.664;-63.766;2023-04-30T04:32:39;24.70;57.30
59975;DHT22;62136;-35.664;-63.766;2023-04-30T04:35:15;24.60;57.30
59975;DHT22;62136;-35.664;-63.766;2023-04-30T04:37:43;24.60;57.30
59975;DHT22;62136;-35.664;-63.766;2023-04-30T04:40:11;24.60;57.30
59975;DHT22;62136;-35.664;-63.766;2023-04-30T04:42:38;24.60;57.40
59975;DHT22;62136;-35.664;-63.766;2023-04-30T04:45:06;24.60;57.40
59975;DHT22;62136;-35.664;-63.766;2023-04-30T04:47:34;24.60;57.50
59975;DHT22;62136;-35.664;-63.766;2023-04-30T04:50:02;24.60;57.50
59975;DHT22;62136;-35.664;-63.766;2023-04-30T04:52:29;24.60;57.50
59975;DHT22;62136;-35.664;-63.766;2023-04-30T04:54:56;24.60;57.50
59975;DHT22;62136;-35.664;-63.766;2023-04-30T04:57:23;24.50;57.40
59975;DHT22;62136;-35.664;-63.766;2023-04-30T04:59:56;24.50;57.40
59975;DHT22;62136;-35.664;-63.766;2023-04-30T05:02:23;24.50;57.50
59975;DHT22;62136;-35.664;-63.766;2023-04-30T05:04:50;24.50;57.50
59975;DHT22;62136;-35.664;-63.766;2023-04-30T05:07:18;24.50;57.60
59975;DHT22;62136;-35.664;-63.766;2023-04-30T05:09:48;24.50;57.60
59975;DHT22;62136;-35.664;-63.766;2023-04-30T05:12:15;24.50;57.60
59975;DHT22;62136;-35.664;-63.766;2023-04-30T05:14:42;24.50;57.70
59975;DHT22;62136;-35.664;-63.766;2023-04-30T05:17:10;24.50;57.70
59975;DHT22;62136;-35.664;-63.766;2023-04-30T05:19:40;24.50;57.70
59975;DHT22;62136;-35.664;-63.766;2023-04-30T05:22:07;24.50;57.80
59975;DHT22;62136;-35.664;-63.766;2023-04-30T05:24:34;24.50;57.80
59975;DHT22;62136;-35.664;-63.766;2023-04-30T05:27:01;24.40;57.80
59975;DHT22;62136;-35.664;-63.766;2023-04-30T05:29:30;24.40;57.80
59975;DHT22;62136;-35.664;-63.766;2023-04-30T05:31:57;24.40;57.90
59975;DHT22;62136;-35.664;-63.766;2023-04-30T05:34:24;24.40;57.90
59975;DHT22;62136;-35.664;-63.766;2023-04-30T05:36:51;24.40;57.90
59975;DHT22;62136;-35.664;-63.766;2023-04-30T05:39:18;24.30;57.90
59975;DHT22;62136;-35.664;-63.766;2023-04-30T05:41:46;24.40;58.00
59975;DHT22;62136;-35.664;-63.766;2023-04-30T05:44:13;24.40;58.10
59975;DHT22;62136;-35.664;-63.766;2023-04-30T05:46:40;24.40;58.10
59975;DHT22;62136;-35.664;-63.766;2023-04-30T05:49:07;24.40;58.10
59975;DHT22;62136;-35.664;-63.766;2023-04-30T05:51:34;24.30;58.10
59975;DHT22;62136;-35.664;-63.766;2023-04-30T05:54:01;24.30;58.10
59975;DHT22;62136;-35.664;-63.766;2023-04-30T05:56:28;24.30;58.20
59975;DHT22;62136;-35.664;-63.766;2023-04-30T05:58:55;24.30;58.20
59975;DHT22;62136;-35.664;-63.766;2023-04-30T06:01:23;24.30;58.20
59975;DHT22;62136;-35.664;-63.766;2023-04-30T06:03:50;24.30;58.30
59975;DHT22;62136;-35.664;-63.766;2023-04-30T06:06:18;24.30;58.30
59975;DHT22;62136;-35.664;-63.766;2023-04-30T06:08:45;24.30;58.40
59975;DHT22;62136;-35.664;-63.766;2023-04-30T06:11:14;24.30;58.40
59975;DHT22;62136;-35.664;-63.766;2023-04-30T06:13:42;24.30;58.50
59975;DHT22;62136;-35.664;-63.766;2023-04-30T06:16:09;24.20;58.40
59975;DHT22;62136;-35.664;-63.766;2023-04-30T06:18:36;24.20;58.40
59975;DHT22;62136;-35.664;-63.766;2023-04-30T06:21:03;24.20;58.40
59975;DHT22;62136;-35.664;-63.766;2023-04-30T06:23:30;24.20;58.50
59975;DHT22;62136;-35.664;-63.766;2023-04-30T06:25:57;24.20;58.60
59975;DHT22;62136;-35.664;-63.766;2023-04-30T06:28:24;24.20;58.60
59975;DHT22;62136;-35.664;-63.766;2023-04-30T06:30:51;24.10;58.60
59975;DHT22;62136;-35.664;-63.766;2023-04-30T06:33:20;24.20;58.70
59975;DHT22;62136;-35.664;-63.766;2023-04-30T06:35:47;24.20;58.80
59975;DHT22;62136;-35.664;-63.766;2023-04-30T06:38:16;24.20;58.70
59975;DHT22;62136;-35.664;-63.766;2023-04-30T06:40:43;24.10;58.70
59975;DHT22;62136;-35.664;-63.766;2023-04-30T06:43:10;24.10;58.70
59975;DHT22;62136;-35.664;-63.766;2023-04-30T06:45:38;24.10;58.70
59975;DHT22;62136;-35.664;-63.766;2023-04-30T06:48:05;24.10;58.70
59975;DHT22;62136;-35.664;-63.766;2023-04-30T06:50:32;24.10;58.80
59975;DHT22;62136;-35.664;-63.766;2023-04-30T06:52:59;24.10;58.80
59975;DHT22;62136;-35.664;-63.766;2023-04-30T06:55:26;24.10;58.90
59975;DHT22;62136;-35.664;-63.766;2023-04-30T06:57:53;24.10;59.40
59975;DHT22;62136;-35.664;-63.766;2023-04-30T07:00:23;24.10;58.90
59975;DHT22;62136;-35.664;-63.766;2023-04-30T07:02:50;24.10;58.90
59975;DHT22;62136;-35.664;-63.766;2023-04-30T07:05:20;24.00;58.90
59975;DHT22;62136;-35.664;-63.766;2023-04-30T07:07:47;24.10;58.90
59975;DHT22;62136;-35.664;-63.766;2023-04-30T07:10:14;24.10;58.90
59975;DHT22;62136;-35.664;-63.766;2023-04-30T07:12:41;24.00;58.90
59975;DHT22;62136;-35.664;-63.766;2023-04-30T07:15:08;24.00;58.90
59975;DHT22;62136;-35.664;-63.766;2023-04-30T07:17:36;24.00;58.90
59975;DHT22;62136;-35.664;-63.766;2023-04-30T07:20:04;24.00;59.00
59975;DHT22;62136;-35.664;-63.766;2023-04-30T07:22:34;24.00;59.00
59975;DHT22;62136;-35.664;-63.766;2023-04-30T07:25:05;24.00;59.10
59975;DHT22;62136;-35.664;-63.766;2023-04-30T07:27:32;23.90;59.00
59975;DHT22;62136;-35.664;-63.766;2023-04-30T07:29:59;23.90;59.00
59975;DHT22;62136;-35.664;-63.766;2023-04-30T07:32:26;23.90;59.10
59975;DHT22;62136;-35.664;-63.766;2023-04-30T07:34:53;23.90;59.10
59975;DHT22;62136;-35.664;-63.766;2023-04-30T07:37:21;23.90;59.20
59975;DHT22;62136;-35.664;-63.766;2023-04-30T07:39:48;23.90;59.10
59975;DHT22;62136;-35.664;-63.766;2023-04-30T07:42:15;23.90;59.10
59975;DHT22;62136;-35.664;-63.766;2023-04-30T07:44:45;23.90;59.20
59975;DHT22;62136;-35.664;-63.766;2023-04-30T07:47:14;23.80;59.10
59975;DHT22;62136;-35.664;-63.766;2023-04-30T07:49:41;23.80;59.60
59975;DHT22;62136;-35.664;-63.766;2023-04-30T07:52:08;23.80;59.20
59975;DHT22;62136;-35.664;-63.766;2023-04-30T07:54:37;23.80;59.20
59975;DHT22;62136;-35.664;-63.766;2023-04-30T07:57:06;23.80;59.20
59975;DHT22;62136;-35.664;-63.766;2023-04-30T07:59:33;23.80;59.20
59975;DHT22;62136;-35.664;-63.766;2023-04-30T08:02:00;23.80;59.20
59975;DHT22;62136;-35.664;-63.766;2023-04-30T08:04:27;23.80;59.20
59975;DHT22;62136;-35.664;-63.766;2023-04-30T08:06:54;23.80;59.20
59975;DHT22;62136;-35.664;-63.766;2023-04-30T08:09:24;23.80;59.20
59975;DHT22;62136;-35.664;-63.766;2023-04-30T08:11:51;23.80;59.10
59975;DHT22;62136;-35.664;-63.766;2023-04-30T08:14:22;23.70;59.10
59975;DHT22;62136;-35.664;-63.766;2023-04-30T08:16:49;23.70;59.10
59975;DHT22;62136;-35.664;-63.766;2023-04-30T08:19:16;23.70;59.10
59975;DHT22;62136;-35.664;-63.766;2023-04-30T08:21:43;23.70;59.10
59975;DHT22;62136;-35.664;-63.766;2023-04-30T08:24:10;23.70;59.10
59975;DHT22;62136;-35.664;-63.766;2023-04-30T08:26:37;23.70;59.10
59975;DHT22;62136;-35.664;-63.766;2023-04-30T08:29:04;23.70;59.10
59975;DHT22;62136;-35.664;-63.766;2023-04-30T08:31:34;23.70;59.10
59975;DHT22;62136;-35.664;-63.766;2023-04-30T08:34:01;23.60;59.10
59975;DHT22;62136;-35.664;-63.766;2023-04-30T08:36:28;23.70;59.10
59975;DHT22;62136;-35.664;-63.766;2023-04-30T08:38:55;23.60;59.00
59975;DHT22;62136;-35.664;-63.766;2023-04-30T08:41:26;23.60;59.10
59975;DHT22;62136;-35.664;-63.766;2023-04-30T08:44:00;23.60;59.20
59975;DHT22;62136;-35.664;-63.766;2023-04-30T08:46:33;23.60;59.10
59975;DHT22;62136;-35.664;-63.766;2023-04-30T08:49:01;23.60;59.10
59975;DHT22;62136;-35.664;-63.766;2023-04-30T08:51:30;23.60;59.10
59975;DHT22;62136;-35.664;-63.766;2023-04-30T08:53:58;23.60;59.20
59975;DHT22;62136;-35.664;-63.766;2023-04-30T08:56:25;23.50;59.20
59975;DHT22;62136;-35.664;-63.766;2023-04-30T08:58:54;23.50;59.10
59975;DHT22;62136;-35.664;-63.766;2023-04-30T09:01:22;23.50;59.10
59975;DHT22;62136;-35.664;-63.766;2023-04-30T09:03:50;23.60;59.20
59975;DHT22;62136;-35.664;-63.766;2023-04-30T09:06:17;23.50;59.10
59975;DHT22;62136;-35.664;-63.766;2023-04-30T09:08:46;23.50;59.10
59975;DHT22;62136;-35.664;-63.766;2023-04-30T09:11:27;23.50;59.10
59975;DHT22;62136;-35.664;-63.766;2023-04-30T09:14:00;23.50;59.00
59975;DHT22;62136;-35.664;-63.766;2023-04-30T09:16:29;23.50;59.00
59975;DHT22;62136;-35.664;-63.766;2023-04-30T09:18:58;23.50;59.00
59975;DHT22;62136;-35.664;-63.766;2023-04-30T09:24:01;23.50;59.00
59975;DHT22;62136;-35.664;-63.766;2023-04-30T09:26:36;23.50;59.00
59975;DHT22;62136;-35.664;-63.766;2023-04-30T09:29:04;23.50;58.90
59975;DHT22;62136;-35.664;-63.766;2023-04-30T09:31:43;23.50;58.80
59975;DHT22;62136;-35.664;-63.766;2023-04-30T09:34:11;23.50;58.60
59975;DHT22;62136;-35.664;-63.766;2023-04-30T09:36:51;23.50;58.90
59975;DHT22;62136;-35.664;-63.766;2023-04-30T09:39:23;23.50;58.70
59975;DHT22;62136;-35.664;-63.766;2023-04-30T09:41:50;23.50;58.70
59975;DHT22;62136;-35.664;-63.766;2023-04-30T09:44:28;23.50;58.60
59975;DHT22;62136;-35.664;-63.766;2023-04-30T09:46:56;23.50;58.50
59975;DHT22;62136;-35.664;-63.766;2023-04-30T09:49:26;23.50;58.60
59975;DHT22;62136;-35.664;-63.766;2023-04-30T09:52:00;23.40;58.50
59975;DHT22;62136;-35.664;-63.766;2023-04-30T09:54:31;23.50;58.50
59975;DHT22;62136;-35.664;-63.766;2023-04-30T09:56:59;23.50;58.40
59975;DHT22;62136;-35.664;-63.766;2023-04-30T09:59:33;23.40;58.00
59975;DHT22;62136;-35.664;-63.766;2023-04-30T10:02:03;23.40;58.20
59975;DHT22;62136;-35.664;-63.766;2023-04-30T10:07:19;23.40;58.20
59975;DHT22;62136;-35.664;-63.766;2023-04-30T10:12:38;23.30;58.00
59975;DHT22;62136;-35.664;-63.766;2023-04-30T10:15:14;23.30;57.80
59975;DHT22;62136;-35.664;-63.766;2023-04-30T10:18:08;23.30;57.90
59975;DHT22;62136;-35.664;-63.766;2023-04-30T10:20:35;23.30;57.70
59975;DHT22;62136;-35.664;-63.766;2023-04-30T10:23:05;23.30;57.60
59975;DHT22;62136;-35.664;-63.766;2023-04-30T10:25:32;23.30;57.60
59975;DHT22;62136;-35.664;-63.766;2023-04-30T10:27:59;23.30;57.50
59975;DHT22;62136;-35.664;-63.766;2023-04-30T10:30:26;23.30;57.50
59975;DHT22;62136;-35.664;-63.766;2023-04-30T10:35:59;23.30;57.10
59975;DHT22;62136;-35.664;-63.766;2023-04-30T10:38:30;23.20;56.90
59975;DHT22;62136;-35.664;-63.766;2023-04-30T10:41:01;23.20;56.80
59975;DHT22;62136;-35.664;-63.766;2023-04-30T10:43:32;23.20;56.60
59975;DHT22;62136;-35.664;-63.766;2023-04-30T10:46:01;23.30;56.70
59975;DHT22;62136;-35.664;-63.766;2023-04-30T10:48:29;23.20;56.50
59975;DHT22;62136;-35.664;-63.766;2023-04-30T10:51:00;23.20;56.30
59975;DHT22;62136;-35.664;-63.766;2023-04-30T10:53:30;23.20;56.40
59975;DHT22;62136;-35.664;-63.766;2023-04-30T10:56:02;23.20;56.40
59975;DHT22;62136;-35.664;-63.766;2023-04-30T10:58:40;23.20;56.10
59975;DHT22;62136;-35.664;-63.766;2023-04-30T11:01:12;23.20;56.20
59975;DHT22;62136;-35.664;-63.766;2023-04-30T11:03:41;23.20;55.90
59975;DHT22;62136;-35.664;-63.766;2023-04-30T11:06:14;23.20;55.90
59975;DHT22;62136;-35.664;-63.766;2023-04-30T11:08:46;23.10;55.60
59975;DHT22;62136;-35.664;-63.766;2023-04-30T11:11:22;23.20;55.70
59975;DHT22;62136;-35.664;-63.766;2023-04-30T11:13:59;23.10;55.40
59975;DHT22;62136;-35.664;-63.766;2023-04-30T11:16:30;23.10;55.40
59975;DHT22;62136;-35.664;-63.766;2023-04-30T11:19:12;23.10;55.30
59975;DHT22;62136;-35.664;-63.766;2023-04-30T11:21:41;23.10;55.30
59975;DHT22;62136;-35.664;-63.766;2023-04-30T11:24:08;23.10;55.20
59975;DHT22;62136;-35.664;-63.766;2023-04-30T11:27:03;23.10;54.90
59975;DHT22;62136;-35.664;-63.766;2023-04-30T11:29:33;23.10;54.90
59975;DHT22;62136;-35.664;-63.766;2023-04-30T11:32:01;23.00;54.70
59975;DHT22;62136;-35.664;-63.766;2023-04-30T11:34:30;23.00;54.60
59975;DHT22;62136;-35.664;-63.766;2023-04-30T11:36:58;23.00;54.50
59975;DHT22;62136;-35.664;-63.766;2023-04-30T11:39:27;23.00;54.30
59975;DHT22;62136;-35.664;-63.766;2023-04-30T11:41:55;23.00;54.20
59975;DHT22;62136;-35.664;-63.766;2023-04-30T11:44:26;23.00;54.10
59975;DHT22;62136;-35.664;-63.766;2023-04-30T11:46:53;23.00;54.00
59975;DHT22;62136;-35.664;-63.766;2023-04-30T11:49:20;23.00;53.80
59975;DHT22;62136;-35.664;-63.766;2023-04-30T11:51:50;23.00;53.90
59975;DHT22;62136;-35.664;-63.766;2023-04-30T11:54:18;22.90;53.90
59975;DHT22;62136;-35.664;-63.766;2023-04-30T11:56:46;22.90;53.50
59975;DHT22;62136;-35.664;-63.766;2023-04-30T11:59:14;22.90;53.40
59975;DHT22;62136;-35.664;-63.766;2023-04-30T12:01:42;22.90;53.60
59975;DHT22;62136;-35.664;-63.766;2023-04-30T12:04:09;22.90;53.40
59975;DHT22;62136;-35.664;-63.766;2023-04-30T12:06:36;22.90;53.40
59975;DHT22;62136;-35.664;-63.766;2023-04-30T12:09:04;22.90;53.00
59975;DHT22;62136;-35.664;-63.766;2023-04-30T12:11:34;22.90;52.90
59975;DHT22;62136;-35.664;-63.766;2023-04-30T12:14:03;22.90;52.80
59975;DHT22;62136;-35.664;-63.766;2023-04-30T12:16:40;22.90;52.90
59975;DHT22;62136;-35.664;-63.766;2023-04-30T12:19:09;22.80;52.80
59975;DHT22;62136;-35.664;-63.766;2023-04-30T12:21:38;22.80;52.60
59975;DHT22;62136;-35.664;-63.766;2023-04-30T12:24:06;22.80;52.50
59975;DHT22;62136;-35.664;-63.766;2023-04-30T12:26:37;22.80;52.50
59975;DHT22;62136;-35.664;-63.766;2023-04-30T12:29:08;22.80;52.50
59975;DHT22;62136;-35.664;-63.766;2023-04-30T12:31:39;22.80;52.30
59975;DHT22;62136;-35.664;-63.766;2023-04-30T12:34:09;22.80;52.30
59975;DHT22;62136;-35.664;-63.766;2023-04-30T12:36:36;22.80;52.20
59975;DHT22;62136;-35.664;-63.766;2023-04-30T12:39:08;22.80;52.10
59975;DHT22;62136;-35.664;-63.766;2023-04-30T12:41:40;22.80;52.40
59975;DHT22;62136;-35.664;-63.766;2023-04-30T12:44:24;22.70;52.10
59975;DHT22;62136;-35.664;-63.766;2023-04-30T12:46:52;22.70;52.20
59975;DHT22;62136;-35.664;-63.766;2023-04-30T12:49:26;22.70;52.20
59975;DHT22;62136;-35.664;-63.766;2023-04-30T12:52:04;22.70;52.20
59975;DHT22;62136;-35.664;-63.766;2023-04-30T12:54:36;22.70;52.10
59975;DHT22;62136;-35.664;-63.766;2023-04-30T12:59:55;22.60;52.10
59975;DHT22;62136;-35.664;-63.766;2023-04-30T13:02:28;22.60;52.20
59975;DHT22;62136;-35.664;-63.766;2023-04-30T13:04:57;22.60;52.20
59975;DHT22;62136;-35.664;-63.766;2023-04-30T13:07:24;22.50;52.10
59975;DHT22;62136;-35.664;-63.766;2023-04-30T13:09:51;22.50;52.20
59975;DHT22;62136;-35.664;-63.766;2023-04-30T13:12:18;22.50;52.00
59975;DHT22;62136;-35.664;-63.766;2023-04-30T13:14:45;22.50;52.20
59975;DHT22;62136;-35.664;-63.766;2023-04-30T13:17:12;22.50;52.10
59975;DHT22;62136;-35.664;-63.766;2023-04-30T13:19:40;22.50;52.10
59975;DHT22;62136;-35.664;-63.766;2023-04-30T13:22:07;22.50;52.10
59975;DHT22;62136;-35.664;-63.766;2023-04-30T13:24:34;22.50;52.20
59975;DHT22;62136;-35.664;-63.766;2023-04-30T13:27:01;22.40;52.00
59975;DHT22;62136;-35.664;-63.766;2023-04-30T13:29:29;22.40;52.00
59975;DHT22;62136;-35.664;-63.766;2023-04-30T13:31:57;22.40;52.00
59975;DHT22;62136;-35.664;-63.766;2023-04-30T13:34:24;22.40;52.10
59975;DHT22;62136;-35.664;-63.766;2023-04-30T13:36:51;22.40;52.10
59975;DHT22;62136;-35.664;-63.766;2023-04-30T13:39:18;22.30;52.00
59975;DHT22;62136;-35.664;-63.766;2023-04-30T13:41:46;22.30;52.10
59975;DHT22;62136;-35.664;-63.766;2023-04-30T13:44:14;22.30;52.00
59975;DHT22;62136;-35.664;-63.766;2023-04-30T13:46:42;22.30;52.00
59975;DHT22;62136;-35.664;-63.766;2023-04-30T13:49:09;22.30;52.00
59975;DHT22;62136;-35.664;-63.766;2023-04-30T13:51:36;22.30;52.10
59975;DHT22;62136;-35.664;-63.766;2023-04-30T13:54:03;22.30;52.10
59975;DHT22;62136;-35.664;-63.766;2023-04-30T13:56:30;22.30;52.20
59975;DHT22;62136;-35.664;-63.766;2023-04-30T13:58:58;22.20;52.00
59975;DHT22;62136;-35.664;-63.766;2023-04-30T14:01:25;22.20;52.10
59975;DHT22;62136;-35.664;-63.766;2023-04-30T14:03:52;22.20;52.00
59975;DHT22;62136;-35.664;-63.766;2023-04-30T14:06:19;22.20;52.20
59975;DHT22;62136;-35.664;-63.766;2023-04-30T14:08:46;22.20;52.10
59975;DHT22;62136;-35.664;-63.766;2023-04-30T14:11:13;22.20;52.10
59975;DHT22;62136;-35.664;-63.766;2023-04-30T14:13:42;22.20;52.20
59975;DHT22;62136;-35.664;-63.766;2023-04-30T14:16:09;22.20;52.20
59975;DHT22;62136;-35.664;-63.766;2023-04-30T14:18:36;22.10;52.20
59975;DHT22;62136;-35.664;-63.766;2023-04-30T14:21:03;22.10;52.30
59975;DHT22;62136;-35.664;-63.766;2023-04-30T14:23:31;22.10;52.30
59975;DHT22;62136;-35.664;-63.766;2023-04-30T14:25:59;22.10;52.30
59975;DHT22;62136;-35.664;-63.766;2023-04-30T14:28:26;22.10;52.20
59975;DHT22;62136;-35.664;-63.766;2023-04-30T14:30:53;22.10;52.30
59975;DHT22;62136;-35.664;-63.766;2023-04-30T14:33:21;22.10;52.30
59975;DHT22;62136;-35.664;-63.766;2023-04-30T14:35:48;22.10;52.40
59975;DHT22;62136;-35.664;-63.766;2023-04-30T14:38:15;22.10;52.20
59975;DHT22;62136;-35.664;-63.766;2023-04-30T14:40:43;22.10;52.30
59975;DHT22;62136;-35.664;-63.766;2023-04-30T14:43:10;22.10;52.30
59975;DHT22;62136;-35.664;-63.766;2023-04-30T14:45:37;22.10;52.30
59975;DHT22;62136;-35.664;-63.766;2023-04-30T14:48:05;22.10;52.30
59975;DHT22;62136;-35.664;-63.766;2023-04-30T14:50:32;22.10;52.30
59975;DHT22;62136;-35.664;-63.766;2023-04-30T14:52:59;22.10;52.50
59975;DHT22;62136;-35.664;-63.766;2023-04-30T14:55:30;22.10;52.40
59975;DHT22;62136;-35.664;-63.766;2023-04-30T14:57:57;22.10;52.40
59975;DHT22;62136;-35.664;-63.766;2023-04-30T15:00:26;22.10;52.00
59975;DHT22;62136;-35.664;-63.766;2023-04-30T15:02:54;22.10;52.40
59975;DHT22;62136;-35.664;-63.766;2023-04-30T15:05:21;22.00;52.50
59975;DHT22;62136;-35.664;-63.766;2023-04-30T15:07:48;22.10;52.40
59975;DHT22;62136;-35.664;-63.766;2023-04-30T15:10:15;22.00;52.40
59975;DHT22;62136;-35.664;-63.766;2023-04-30T15:12:42;22.00;52.50
59975;DHT22;62136;-35.664;-63.766;2023-04-30T15:15:09;22.00;52.40
59975;DHT22;62136;-35.664;-63.766;2023-04-30T15:17:36;22.00;52.50
59975;DHT22;62136;-35.664;-63.766;2023-04-30T15:20:04;22.00;52.50
59975;DHT22;62136;-35.664;-63.766;2023-04-30T15:22:32;22.00;52.50
59975;DHT22;62136;-35.664;-63.766;2023-04-30T15:24:59;22.00;53.00
59975;DHT22;62136;-35.664;-63.766;2023-04-30T15:27:29;22.00;52.60